首页
METAR-TAF:

METAR-TAF

机场 :

皮斯里弗, 艾伯塔, 加拿大

纬度: 56-14N, 经度: 117-26W, 海拔: 571米

当前天气观测

该预报发布于30分钟前的13:00 UTC
风速4节,风向北转东北
温度 9°C
湿度 66%
气压 1019 hPa
能見度: 24.1公里
少量云层高于12000英尺
阴天层高于19000英尺

METAR: CYPE 221300Z 03004KT 15SM FEW120 OVC190 09/03 A3010 RMK AC2CI6 SLP203

时间: 07:30 (13:30 UTC)

预报

该预报发布于52分钟前的12:38 UTC
预报有效从22日的 13点(UTC)到 23日的 01点(UTC)
风速5节,风向
能見度: 10公里
少量云层高于10000英尺
多云层高于22000英尺
从 22日的 1700点(UTC)
风速5节,风向东北
能見度: 10公里
少量云层高于5000英尺
多云层高于22000英尺
从 22日的 2200点(UTC)
风速8节,风向
能見度: 10公里
多云层高于9000英尺
阴天层高于20000英尺

TAF: CYPE 221238Z 2213/2301 36005KT P6SM FEW100 BKN220 FM221700 05005KT P6SM FEW050 BKN220 FM222200 18008KT P6SM BKN090 OVC200 RMK NXT FCST BY 221900Z

超过4000个机场的气象观测和天气预报(METAR&TAF报告)。

可查询的气象台以黄色和红色小点在地图上表示。

将鼠标移到小点上方,可查看气象台名称。

然后点击查看天气观测和预报。

如需切换地图:点击带黑十字的绿色按钮放大地图;点击带横线的绿色按钮缩小地图;或者点击绿色箭头查看邻近地区的地图。


METAR-TAF: